Weather History for KD39 - March, 2013

Change the Weather History Date:

Sunday, March 10, 2013

  Actual Average (KGHW) Record (KGHW)
Temperature  
Mean Temperature 28 °F -  
Max Temperature 32 °F 35 °F 53 °F (2012)
Min Temperature 23 °F 15 °F -13 °F (2003)
Degree Days  
Heating Degree Days 38    
Moisture  
Dew Point 22 °F    
Average Humidity 82    
Maximum Humidity 93    
Minimum Humidity 74    
Precipitation  
Precipitation 0.00 in - - ()
Sea Level Pressure  
Sea Level Pressure 29.96 in    
Wind  
Wind Speed 14 mph (North)    
Max Wind Speed 20 mph    
Max Gust Speed 28 mph    
Visibility 9 miles    
Events      
Averages and records for this station are not official NWS values.
T = Trace of Precipitation, MM = Missing Value Source: NWS Daily Summary

Daily Weather History Graph

Daily Weather History Graph

Search for Another Location

Airport or City:

Trip Planner

Search our weather history database for the weather conditions in past years. The results will help you decide how hot, cold, wet, or windy it might be!

Date:

Astronomy

Mar. 10, 2013 Rise Set
Actual Time 7:41 AM CDT 7:19 PM CDT
Civil Twilight 7:11 AM CDT 7:48 PM CDT
Nautical Twilight 6:37 AM CDT 8:23 PM CDT
Astronomical Twilight 6:02 AM CDT 8:58 PM CDT
Moon 6:43 AM CDT (3/10) 6:27 PM CDT (3/10)
Length of Visible Light 12h 37m
Length of Day
11h 38m
Waning Crescent, 2% of the Moon is Illuminated
Mar 10
Waning Crescent
Mar 11
New
Mar 19
First Quarter
Mar 27
Full
Apr 2
Last Quarter

Hourly Weather History & Observations

Time (CDT) Temp. Windchill Dew Point Humidity Pressure Visibility Wind Dir Wind Speed Gust Speed Precip Events Conditions
12:15 AM 32.0 °F 22.5 °F 30.2 °F 93% 29.84 in 10.0 mi NNW 12.7 mph 18.4 mph N/A   Overcast
12:35 AM 32.0 °F 21.2 °F 28.4 °F 87% 29.83 in 7.0 mi NW 16.1 mph - N/A   Overcast
12:55 AM 30.2 °F 19.3 °F 28.4 °F 93% 29.84 in 4.0 mi NNW 15.0 mph - N/A   Overcast
1:15 AM 30.2 °F 19.8 °F 28.4 °F 93% 29.85 in 4.0 mi NNW 13.8 mph 18.4 mph N/A   Overcast
1:35 AM 30.2 °F 21.3 °F 28.4 °F 93% 29.86 in 5.0 mi NNW 10.4 mph - N/A   Overcast
1:55 AM 30.2 °F 21.9 °F 28.4 °F 93% 29.88 in 5.0 mi NW 9.2 mph - N/A   Overcast
3:15 AM 30.2 °F 19.3 °F 28.4 °F 93% 29.87 in 7.0 mi NNW 15.0 mph - N/A   Overcast
3:55 AM 28.4 °F 16.6 °F 24.8 °F 86% 29.87 in 7.0 mi NW 16.1 mph - N/A   Overcast
4:15 AM 26.6 °F 15.7 °F 24.8 °F 93% 29.88 in 7.0 mi NW 12.7 mph - N/A   Overcast
4:35 AM 26.6 °F 14.7 °F 24.8 °F 93% 29.87 in 7.0 mi NNW 15.0 mph - N/A   Overcast
4:55 AM 26.6 °F 14.3 °F 24.8 °F 93% 29.87 in 5.0 mi NNW 16.1 mph 19.6 mph N/A   Overcast
5:15 AM 26.6 °F 14.3 °F 24.8 °F 93% 29.87 in 5.0 mi NNW 16.1 mph - N/A   Overcast
5:35 AM 26.6 °F 13.8 °F 23.0 °F 86% 29.89 in 7.0 mi NNW 17.3 mph 24.2 mph N/A   Overcast
5:55 AM 26.6 °F 14.3 °F 23.0 °F 86% 29.91 in 7.0 mi NNW 16.1 mph - N/A   Overcast
6:15 AM 26.6 °F 14.3 °F 23.0 °F 86% 29.91 in 7.0 mi NNW 16.1 mph 20.7 mph N/A   Overcast
7:35 AM 26.6 °F 14.7 °F 23.0 °F 86% 29.93 in 5.0 mi NNW 15.0 mph 21.9 mph N/A   Overcast
7:55 AM 26.6 °F 13.4 °F 23.0 °F 86% 29.93 in 5.0 mi NNW 18.4 mph 24.2 mph N/A   Overcast
8:15 AM 24.8 °F 11.9 °F 21.2 °F 86% 29.96 in 7.0 mi North 16.1 mph 24.2 mph N/A   Overcast
8:35 AM 24.8 °F 12.9 °F 21.2 °F 86% 30.00 in 7.0 mi North 13.8 mph 17.3 mph N/A   Overcast
8:55 AM 24.8 °F 14.0 °F 21.2 °F 86% 30.01 in 7.0 mi NNW 11.5 mph 17.3 mph N/A   Overcast
9:15 AM 24.8 °F 11.5 °F 21.2 °F 86% 30.01 in 7.0 mi NNW 17.3 mph 23.0 mph N/A   Overcast
9:35 AM 26.6 °F 15.7 °F 21.2 °F 80% 30.02 in 7.0 mi NNW 12.7 mph 18.4 mph N/A   Overcast
9:55 AM 26.6 °F 15.7 °F 21.2 °F 80% 30.01 in 7.0 mi North 12.7 mph 20.7 mph N/A   Overcast
10:15 AM 26.6 °F 13.1 °F 21.2 °F 80% 29.99 in 10.0 mi NNW 19.6 mph 26.5 mph N/A   Overcast
10:35 AM 26.6 °F 13.8 °F 21.2 °F 80% 30.02 in 10.0 mi North 17.3 mph 24.2 mph N/A   Overcast
10:55 AM 26.6 °F 13.4 °F 21.2 °F 80% 30.00 in 10.0 mi North 18.4 mph 24.2 mph N/A   Overcast
11:15 AM 26.6 °F 13.8 °F 21.2 °F 80% 30.01 in 10.0 mi North 17.3 mph 25.3 mph N/A   Overcast
11:35 AM 26.6 °F 13.1 °F 21.2 °F 80% 30.01 in 10.0 mi North 19.6 mph 25.3 mph N/A   Overcast
11:55 AM 26.6 °F 14.7 °F 21.2 °F 80% 30.01 in 10.0 mi North 15.0 mph 24.2 mph N/A   Overcast
12:15 PM 26.6 °F 15.2 °F 21.2 °F 80% 30.02 in 10.0 mi North 13.8 mph 23.0 mph N/A   Overcast
12:35 PM 26.6 °F 17.5 °F 21.2 °F 80% 30.05 in 10.0 mi North 9.2 mph 17.3 mph N/A   Overcast
12:55 PM 26.6 °F 16.2 °F 21.2 °F 80% 30.04 in 10.0 mi North 11.5 mph - N/A   Overcast
1:15 PM 26.6 °F 13.8 °F 21.2 °F 80% 30.03 in 10.0 mi North 17.3 mph 20.7 mph N/A   Overcast
1:35 PM 26.6 °F 14.3 °F 21.2 °F 80% 30.02 in 10.0 mi North 16.1 mph 23.0 mph N/A   Overcast
1:55 PM 26.6 °F 13.8 °F 21.2 °F 80% 29.99 in 10.0 mi North 17.3 mph 27.6 mph N/A   Overcast
2:15 PM 26.6 °F 13.8 °F 21.2 °F 80% 30.00 in 10.0 mi North 17.3 mph 24.2 mph N/A   Overcast
2:35 PM 26.6 °F 14.7 °F 21.2 °F 80% 30.00 in 10.0 mi North 15.0 mph 20.7 mph N/A   Overcast
2:55 PM 26.6 °F 15.2 °F 21.2 °F 80% 30.01 in 10.0 mi North 13.8 mph 24.2 mph N/A   Overcast
3:15 PM 26.6 °F 14.7 °F 21.2 °F 80% 30.02 in 10.0 mi North 15.0 mph 21.9 mph N/A   Overcast
3:35 PM 26.6 °F 14.3 °F 21.2 °F 80% 30.01 in 10.0 mi North 16.1 mph - N/A   Overcast
3:55 PM 26.6 °F 15.7 °F 21.2 °F 80% 30.00 in 10.0 mi North 12.7 mph 23.0 mph N/A   Overcast
4:15 PM 26.6 °F 14.3 °F 21.2 °F 80% 30.00 in 10.0 mi North 16.1 mph 19.6 mph N/A   Overcast
4:35 PM 26.6 °F 15.2 °F 21.2 °F 80% 29.99 in 10.0 mi North 13.8 mph 23.0 mph N/A   Overcast
4:55 PM 26.6 °F 14.7 °F 21.2 °F 80% 29.97 in 10.0 mi North 15.0 mph 21.9 mph N/A   Overcast
5:15 PM 26.6 °F 15.2 °F 21.2 °F 80% 29.97 in 10.0 mi North 13.8 mph 24.2 mph N/A   Overcast
5:35 PM 26.6 °F 14.3 °F 21.2 °F 80% 29.98 in 10.0 mi North 16.1 mph 23.0 mph N/A   Overcast
5:55 PM 26.6 °F 13.8 °F 21.2 °F 80% 29.98 in 10.0 mi North 17.3 mph 21.9 mph N/A   Overcast
6:15 PM 26.6 °F 14.3 °F 21.2 °F 80% 29.97 in 10.0 mi North 16.1 mph 23.0 mph N/A   Overcast
6:35 PM 26.6 °F 16.2 °F 21.2 °F 80% 29.99 in 10.0 mi North 11.5 mph 18.4 mph N/A   Overcast
6:55 PM 26.6 °F 15.2 °F 21.2 °F 80% 29.98 in 10.0 mi North 13.8 mph 19.6 mph N/A   Overcast
7:15 PM 26.6 °F 14.7 °F 19.4 °F 74% 29.98 in 10.0 mi North 15.0 mph 21.9 mph N/A   Overcast
7:35 PM 26.6 °F 16.2 °F 19.4 °F 74% 29.98 in 10.0 mi North 11.5 mph - N/A   Overcast
7:55 PM 26.6 °F 16.2 °F 19.4 °F 74% 29.98 in 10.0 mi North 11.5 mph 19.6 mph N/A   Overcast
8:15 PM 26.6 °F 15.7 °F 19.4 °F 74% 29.98 in 10.0 mi North 12.7 mph 18.4 mph N/A   Overcast
8:35 PM 26.6 °F 15.7 °F 19.4 °F 74% 29.98 in 10.0 mi North 12.7 mph - N/A   Overcast
8:55 PM 26.6 °F 16.8 °F 19.4 °F 74% 29.99 in 10.0 mi North 10.4 mph - N/A   Overcast
9:15 PM 26.6 °F 16.8 °F 19.4 °F 74% 29.99 in 10.0 mi North 10.4 mph - N/A   Overcast
9:35 PM 26.6 °F 16.8 °F 19.4 °F 74% 29.99 in 10.0 mi North 10.4 mph - N/A   Overcast
9:55 PM 26.6 °F 15.7 °F 19.4 °F 74% 29.99 in 10.0 mi North 12.7 mph - N/A   Overcast
10:15 PM 26.6 °F 15.7 °F 19.4 °F 74% 29.98 in 10.0 mi North 12.7 mph - N/A   Overcast
10:35 PM 24.8 °F 13.4 °F 19.4 °F 80% 29.98 in 10.0 mi North 12.7 mph 18.4 mph N/A   Mostly Cloudy
10:55 PM 24.8 °F 14.0 °F 19.4 °F 80% 29.97 in 10.0 mi North 11.5 mph - N/A   Mostly Cloudy
11:15 PM 24.8 °F 14.6 °F 17.6 °F 74% 29.97 in 10.0 mi North 10.4 mph 16.1 mph N/A   Mostly Cloudy
11:35 PM 24.8 °F 14.6 °F 19.4 °F 80% 29.96 in 10.0 mi North 10.4 mph - N/A   Overcast
11:55 PM 23.0 °F 13.9 °F 19.4 °F 86% 29.96 in 10.0 mi North 8.1 mph - N/A   Overcast
12:15 AM 23.0 °F 13.9 °F 19.4 °F 86% 29.96 in 10.0 mi NNE 8.1 mph - N/A   Overcast
12:35 AM 23.0 °F 13.9 °F 19.4 °F 86% 29.95 in 10.0 mi North 8.1 mph - N/A   Overcast
12:55 AM 23.0 °F 13.1 °F 19.4 °F 86% 29.94 in 10.0 mi North 9.2 mph - N/A   Overcast